createdAt,value
2018-08-16T00:00:17.944Z,2.63
2018-08-16T00:02:46.733Z,3.70
2018-08-16T00:05:15.282Z,3.03
2018-08-16T00:07:43.633Z,3.07
2018-08-16T00:10:17.081Z,2.93
2018-08-16T00:12:46.483Z,2.70
2018-08-16T00:15:15.758Z,2.40
2018-08-16T00:17:44.044Z,2.83
2018-08-16T00:20:12.646Z,2.80
2018-08-16T00:22:41.067Z,3.00
2018-08-16T00:25:10.710Z,2.30
2018-08-16T00:27:38.976Z,2.90
2018-08-16T00:30:12.803Z,3.20
2018-08-16T00:32:41.275Z,2.80
2018-08-16T00:35:09.545Z,3.13
2018-08-16T00:37:37.794Z,3.30
2018-08-16T00:40:07.982Z,2.47
2018-08-16T00:42:36.619Z,3.03
2018-08-16T00:45:06.546Z,2.67
2018-08-16T00:47:35.348Z,2.80
2018-08-16T00:50:05.006Z,2.77
2018-08-16T00:52:33.536Z,2.97
2018-08-16T00:55:01.755Z,3.20
2018-08-16T00:57:30.032Z,2.53
2018-08-16T00:59:58.234Z,2.90
2018-08-16T01:02:26.490Z,2.53
2018-08-16T01:04:54.727Z,3.20
2018-08-16T01:07:23.042Z,2.63
2018-08-16T01:09:51.250Z,2.93
2018-08-16T01:12:19.522Z,3.27
2018-08-16T01:14:47.908Z,3.13
2018-08-16T01:17:16.181Z,2.47
2018-08-16T01:19:44.404Z,2.60
2018-08-16T01:22:13.010Z,2.50
2018-08-16T01:24:41.371Z,3.13
2018-08-16T01:27:09.654Z,2.63
2018-08-16T01:29:38.001Z,2.80
2018-08-16T01:32:06.195Z,3.10
2018-08-16T01:34:34.403Z,2.90
2018-08-16T01:37:02.670Z,2.67
2018-08-16T01:39:30.930Z,3.23
2018-08-16T01:41:59.201Z,3.03
2018-08-16T01:44:27.423Z,3.80
2018-08-16T01:46:55.651Z,2.57
2018-08-16T01:49:32.118Z,3.60
2018-08-16T01:52:00.712Z,3.37
2018-08-16T01:54:29.547Z,3.47
2018-08-16T01:56:58.266Z,3.03
2018-08-16T01:59:26.647Z,3.00
2018-08-16T02:01:54.885Z,3.27
2018-08-16T02:04:23.102Z,2.87
2018-08-16T02:06:51.960Z,2.53
2018-08-16T02:09:20.940Z,2.50
2018-08-16T02:11:49.287Z,3.13
2018-08-16T02:14:17.790Z,3.20
2018-08-16T02:16:46.070Z,2.97
2018-08-16T02:19:14.314Z,2.73
2018-08-16T02:21:42.534Z,2.93
2018-08-16T02:24:10.828Z,3.03
2018-08-16T02:26:39.127Z,2.93
2018-08-16T02:29:07.411Z,3.43
2018-08-16T02:31:35.680Z,3.17
2018-08-16T02:34:04.174Z,3.00
2018-08-16T02:36:32.456Z,2.70
2018-08-16T02:39:00.634Z,2.87
2018-08-16T02:41:28.897Z,2.87
2018-08-16T02:43:57.078Z,3.30
2018-08-16T02:46:25.342Z,2.93
2018-08-16T02:48:53.723Z,3.13
2018-08-16T02:51:21.970Z,3.13
2018-08-16T02:53:50.274Z,3.30
2018-08-16T02:56:18.522Z,3.00
2018-08-16T02:58:46.736Z,2.80
2018-08-16T03:01:14.998Z,3.53
2018-08-16T03:03:43.230Z,2.43
2018-08-16T03:06:11.651Z,2.67
2018-08-16T03:08:39.782Z,3.07
2018-08-16T03:11:08.380Z,3.23
2018-08-16T03:13:36.607Z,3.10
2018-08-16T03:16:04.798Z,3.80
2018-08-16T03:18:33.058Z,3.57
2018-08-16T03:21:01.376Z,3.23
2018-08-16T03:23:29.564Z,3.30
2018-08-16T03:25:57.840Z,3.67
2018-08-16T03:28:26.068Z,3.47
2018-08-16T03:30:54.278Z,3.70
2018-08-16T03:33:22.539Z,4.23
2018-08-16T03:35:50.745Z,3.63
2018-08-16T03:38:19.004Z,3.50
2018-08-16T03:40:47.245Z,3.83
2018-08-16T03:43:15.466Z,4.20
2018-08-16T03:45:43.684Z,4.03
2018-08-16T03:48:11.981Z,3.90
2018-08-16T03:50:40.171Z,3.80
2018-08-16T03:53:08.380Z,3.40
2018-08-16T03:55:36.642Z,4.00
2018-08-16T03:58:11.382Z,3.43
2018-08-16T04:00:39.646Z,3.60
2018-08-16T04:03:08.030Z,3.53
2018-08-16T04:05:36.363Z,3.60
2018-08-16T04:08:04.675Z,3.87
2018-08-16T04:10:32.966Z,4.27
2018-08-16T04:13:01.227Z,3.73
2018-08-16T04:15:29.474Z,3.43
2018-08-16T04:17:57.706Z,3.20
2018-08-16T04:20:25.938Z,3.30
2018-08-16T04:22:54.158Z,3.27
2018-08-16T04:25:22.384Z,3.13
2018-08-16T04:27:50.574Z,3.17
2018-08-16T04:30:18.860Z,3.20
2018-08-16T04:32:47.314Z,2.90
2018-08-16T04:35:15.613Z,3.10
2018-08-16T04:37:43.777Z,3.40
2018-08-16T04:40:12.088Z,3.60
2018-08-16T04:42:40.451Z,3.80
2018-08-16T04:45:09.291Z,3.50
2018-08-16T04:47:37.569Z,3.13
2018-08-16T04:50:08.230Z,3.50
2018-08-16T04:52:36.479Z,2.87
2018-08-16T04:55:05.478Z,3.87
2018-08-16T04:57:33.822Z,3.00
2018-08-16T05:00:02.058Z,3.20
2018-08-16T05:02:30.287Z,3.00
2018-08-16T05:04:58.494Z,3.23
2018-08-16T05:07:26.719Z,4.00
2018-08-16T05:09:55.234Z,3.33
2018-08-16T05:12:23.497Z,3.80
2018-08-16T05:14:51.698Z,3.67
2018-08-16T05:17:19.993Z,3.83
2018-08-16T05:19:48.239Z,3.90
2018-08-16T05:22:16.506Z,3.33
2018-08-16T05:24:44.791Z,3.67
2018-08-16T05:27:13.080Z,3.70
2018-08-16T05:29:41.347Z,3.63
2018-08-16T05:32:09.589Z,3.33
2018-08-16T05:34:37.818Z,4.43
2018-08-16T05:37:06.047Z,3.70
2018-08-16T05:39:34.262Z,3.70
2018-08-16T05:42:02.480Z,3.63
2018-08-16T05:44:30.712Z,3.93
2018-08-16T05:46:58.980Z,3.83
2018-08-16T05:49:27.171Z,3.93
2018-08-16T05:51:55.398Z,4.30
2018-08-16T05:54:23.663Z,4.30
2018-08-16T05:56:51.855Z,3.23
2018-08-16T05:59:20.111Z,4.90
2018-08-16T06:01:48.318Z,4.13
2018-08-16T06:04:16.563Z,4.60
2018-08-16T06:06:44.806Z,4.30
2018-08-16T06:09:13.089Z,5.10
2018-08-16T06:11:41.316Z,3.83
2018-08-16T06:14:10.053Z,4.23
2018-08-16T06:16:38.600Z,4.83
2018-08-16T06:19:07.386Z,4.50
2018-08-16T06:21:35.702Z,4.67
2018-08-16T06:24:04.070Z,4.17
2018-08-16T06:26:32.267Z,4.07
2018-08-16T06:29:00.478Z,4.13
2018-08-16T06:31:28.817Z,4.73
2018-08-16T06:33:57.139Z,4.20
2018-08-16T06:36:25.498Z,5.17
2018-08-16T06:38:53.876Z,4.33
2018-08-16T06:41:22.005Z,4.50
2018-08-16T06:43:50.225Z,5.07
2018-08-16T06:46:18.516Z,5.03
2018-08-16T06:48:46.791Z,4.90
2018-08-16T06:51:15.052Z,4.63
2018-08-16T06:53:43.297Z,4.63
2018-08-16T06:56:11.574Z,4.60
2018-08-16T06:58:39.846Z,4.80
2018-08-16T07:01:08.199Z,4.70
2018-08-16T07:03:36.443Z,4.30
2018-08-16T07:06:04.682Z,4.63
2018-08-16T07:08:32.940Z,5.30
2018-08-16T07:11:01.239Z,4.57
2018-08-16T07:13:29.490Z,4.87
2018-08-16T07:15:57.702Z,5.30
2018-08-16T07:18:25.943Z,5.40
2018-08-16T07:20:54.191Z,5.17
2018-08-16T07:23:22.403Z,5.00
2018-08-16T07:25:50.784Z,3.60
2018-08-16T07:28:19.077Z,5.50
2018-08-16T07:30:47.332Z,4.83
2018-08-16T07:33:15.715Z,4.53
2018-08-16T07:35:43.946Z,4.70
2018-08-16T07:38:12.205Z,6.10
2018-08-16T07:40:40.478Z,5.23
2018-08-16T07:43:08.773Z,6.00
2018-08-16T07:45:37.383Z,5.10
2018-08-16T07:48:06.238Z,5.97
2018-08-16T07:50:34.593Z,5.60
2018-08-16T07:53:02.763Z,5.50
2018-08-16T07:55:31.123Z,4.90
2018-08-16T07:57:59.326Z,5.53
2018-08-16T08:00:27.584Z,5.30
2018-08-16T08:02:55.805Z,5.40
2018-08-16T08:05:24.029Z,5.33
2018-08-16T08:07:52.614Z,5.27
2018-08-16T08:10:20.831Z,5.27
2018-08-16T08:12:49.086Z,5.10
2018-08-16T08:15:17.354Z,5.90
2018-08-16T08:17:45.788Z,5.60
2018-08-16T08:20:15.397Z,4.77
2018-08-16T08:22:43.698Z,5.37
2018-08-16T08:25:13.085Z,4.47
2018-08-16T08:27:41.279Z,5.77
2018-08-16T08:30:15.182Z,4.97
2018-08-16T08:32:43.452Z,4.20
2018-08-16T08:35:11.710Z,4.67
2018-08-16T08:37:51.330Z,4.92
2018-08-16T08:40:19.607Z,4.12
2018-08-16T08:42:47.973Z,4.67
2018-08-16T08:45:16.236Z,4.70
2018-08-16T08:47:46.852Z,3.75
2018-08-16T08:50:15.138Z,3.22
2018-08-16T08:52:43.383Z,3.58
2018-08-16T08:55:23.082Z,3.52
2018-08-16T08:58:02.815Z,3.65
2018-08-16T09:00:31.060Z,3.45
2018-08-16T09:02:59.360Z,3.42
2018-08-16T09:05:27.614Z,3.55
2018-08-16T09:07:55.831Z,3.83
2018-08-16T09:11:01.978Z,3.30
2018-08-16T09:13:41.848Z,3.93
2018-08-16T09:16:12.626Z,3.73
2018-08-16T09:18:40.978Z,3.07
2018-08-16T09:21:10.119Z,3.20
2018-08-16T09:23:38.399Z,3.53
2018-08-16T09:26:12.074Z,3.80
2018-08-16T09:28:40.735Z,3.27
2018-08-16T09:31:20.874Z,3.87
2018-08-16T09:34:00.346Z,3.43
2018-08-16T09:36:28.651Z,3.70
2018-08-16T09:38:57.721Z,3.73
2018-08-16T09:41:26.071Z,4.07
2018-08-16T09:43:54.343Z,3.40
2018-08-16T09:47:03.250Z,3.50
2018-08-16T09:49:33.099Z,3.67
2018-08-16T09:52:01.426Z,3.00
2018-08-16T09:54:29.803Z,4.10
2018-08-16T09:56:59.519Z,3.37
2018-08-16T09:59:27.939Z,3.57
2018-08-16T10:01:56.220Z,3.83
2018-08-16T10:04:24.576Z,3.80
2018-08-16T10:06:52.823Z,3.23
2018-08-16T10:09:23.210Z,3.97
2018-08-16T10:11:51.978Z,3.50
2018-08-16T10:14:20.600Z,3.63
2018-08-16T10:16:48.861Z,3.23
2018-08-16T10:19:17.122Z,3.70
2018-08-16T10:21:45.545Z,3.80
2018-08-16T10:24:13.892Z,3.50
2018-08-16T10:26:42.352Z,3.87
2018-08-16T10:29:11.374Z,3.23
2018-08-16T10:31:39.674Z,3.47
2018-08-16T10:34:08.668Z,3.60
2018-08-16T10:36:37.043Z,4.13
2018-08-16T10:39:10.978Z,3.97
2018-08-16T10:41:40.014Z,3.83
2018-08-16T10:44:08.340Z,3.93
2018-08-16T10:46:36.663Z,4.17
2018-08-16T10:49:04.950Z,3.67
2018-08-16T10:51:34.438Z,3.87
2018-08-16T10:54:02.730Z,3.93
2018-08-16T10:56:31.248Z,4.07
2018-08-16T10:58:59.563Z,4.23
2018-08-16T11:01:28.074Z,4.17
2018-08-16T11:03:56.273Z,3.93
2018-08-16T11:06:24.727Z,3.50
2018-08-16T11:08:52.970Z,3.80
2018-08-16T11:11:21.286Z,3.20
2018-08-16T11:13:49.736Z,3.30
2018-08-16T11:16:17.987Z,3.60
2018-08-16T11:18:46.300Z,4.67
2018-08-16T11:21:14.550Z,4.07
2018-08-16T11:23:43.346Z,3.87
2018-08-16T11:26:11.568Z,3.60
2018-08-16T11:28:40.501Z,3.87
2018-08-16T11:31:08.749Z,3.67
2018-08-16T11:33:37.058Z,4.27
2018-08-16T11:36:05.379Z,3.83
2018-08-16T11:38:33.627Z,3.50
2018-08-16T11:41:01.866Z,3.63
2018-08-16T11:43:30.205Z,3.60
2018-08-16T11:45:58.491Z,3.53
2018-08-16T11:48:26.749Z,3.57
2018-08-16T11:50:54.982Z,4.13
2018-08-16T11:53:23.262Z,3.93
2018-08-16T11:55:51.547Z,4.50
2018-08-16T11:58:19.857Z,3.83
2018-08-16T12:00:48.103Z,4.07
2018-08-16T12:03:16.375Z,4.30
2018-08-16T12:05:44.662Z,3.97
2018-08-16T12:08:12.954Z,4.00
2018-08-16T12:10:41.186Z,3.90
2018-08-16T12:13:09.398Z,3.80
2018-08-16T12:15:37.639Z,4.13
2018-08-16T12:18:06.292Z,3.80
2018-08-16T12:20:34.690Z,3.93
2018-08-16T12:23:02.971Z,3.47
2018-08-16T12:25:31.175Z,3.50
2018-08-16T12:27:59.402Z,3.93
2018-08-16T12:30:27.637Z,3.43
2018-08-16T12:32:55.830Z,3.50
2018-08-16T12:35:24.086Z,3.87
2018-08-16T12:37:52.330Z,4.10
2018-08-16T12:40:20.541Z,3.53
2018-08-16T12:42:48.852Z,3.53
2018-08-16T12:45:17.080Z,3.80
2018-08-16T12:47:45.380Z,3.43
2018-08-16T12:50:13.634Z,4.30
2018-08-16T12:52:41.907Z,3.97
2018-08-16T12:55:10.162Z,3.40
2018-08-16T12:57:38.431Z,3.57
2018-08-16T13:00:11.177Z,3.70
2018-08-16T13:02:39.397Z,3.53
2018-08-16T13:05:07.731Z,3.53
2018-08-16T13:07:36.244Z,3.40
2018-08-16T13:10:05.204Z,3.07
2018-08-16T13:12:33.786Z,3.50
2018-08-16T13:15:02.530Z,3.13
2018-08-16T13:17:30.873Z,3.50
2018-08-16T13:19:59.121Z,4.13
2018-08-16T13:22:27.706Z,4.10
2018-08-16T13:24:56.017Z,3.43
2018-08-16T13:27:24.330Z,3.43
2018-08-16T13:29:52.579Z,3.90
2018-08-16T13:32:20.781Z,3.33
2018-08-16T13:34:49.072Z,2.70
2018-08-16T13:37:17.292Z,3.30
2018-08-16T13:39:45.553Z,2.87
2018-08-16T13:42:13.942Z,3.30
2018-08-16T13:44:42.226Z,3.27
2018-08-16T13:47:10.714Z,3.57
2018-08-16T13:49:39.097Z,3.63
2018-08-16T13:52:07.862Z,3.37
2018-08-16T13:54:36.074Z,3.63
2018-08-16T13:57:04.342Z,3.80
2018-08-16T13:59:32.671Z,3.27
2018-08-16T14:02:01.081Z,3.53
2018-08-16T14:04:29.686Z,3.10
2018-08-16T14:06:58.299Z,3.77
2018-08-16T14:09:26.838Z,3.90
2018-08-16T14:11:55.043Z,3.22
2018-08-16T14:14:23.889Z,3.10
2018-08-16T14:16:52.143Z,3.60
2018-08-16T14:19:20.431Z,3.60
2018-08-16T14:21:48.711Z,3.17
2018-08-16T14:24:16.947Z,3.17
2018-08-16T14:26:45.234Z,3.40
2018-08-16T14:29:13.478Z,3.50
2018-08-16T14:31:41.693Z,3.00
2018-08-16T14:34:09.972Z,4.93
2018-08-16T14:36:38.376Z,3.13
2018-08-16T14:39:08.568Z,3.20
2018-08-16T14:41:36.836Z,3.27
2018-08-16T14:44:05.137Z,3.10
2018-08-16T14:46:33.367Z,3.17
2018-08-16T14:49:01.622Z,3.35
2018-08-16T14:51:30.006Z,3.33
2018-08-16T14:53:58.139Z,4.08
2018-08-16T14:56:26.478Z,3.83
2018-08-16T14:58:54.722Z,3.30
2018-08-16T15:01:22.967Z,3.40
2018-08-16T15:03:51.251Z,2.97
2018-08-16T15:06:19.571Z,3.57
2018-08-16T15:08:47.770Z,3.80
2018-08-16T15:11:16.025Z,3.70
2018-08-16T15:13:44.250Z,3.60
2018-08-16T15:16:19.202Z,3.50
2018-08-16T15:18:47.447Z,3.63
2018-08-16T15:21:15.691Z,3.60
2018-08-16T15:23:43.939Z,3.47
2018-08-16T15:26:12.159Z,3.40
2018-08-16T15:28:40.494Z,3.43
2018-08-16T15:31:08.745Z,3.20
2018-08-16T15:33:37.030Z,3.17
2018-08-16T15:36:05.309Z,3.60
2018-08-16T15:38:33.538Z,3.33
2018-08-16T15:41:01.837Z,3.53
2018-08-16T15:43:30.029Z,3.87
2018-08-16T15:45:58.285Z,3.53
2018-08-16T15:48:26.506Z,4.13
2018-08-16T15:50:54.715Z,3.87
2018-08-16T15:53:23.023Z,3.43
2018-08-16T15:55:51.246Z,3.80
2018-08-16T15:58:19.532Z,3.70
2018-08-16T16:00:47.802Z,4.07
2018-08-16T16:03:16.035Z,3.63
2018-08-16T16:05:44.442Z,3.43
2018-08-16T16:08:13.640Z,3.65
2018-08-16T16:10:41.948Z,3.97
2018-08-16T16:13:10.186Z,3.63
2018-08-16T16:15:38.792Z,4.13
2018-08-16T16:18:07.078Z,3.47
2018-08-16T16:20:35.395Z,3.93
2018-08-16T16:23:03.691Z,3.70
2018-08-16T16:25:31.931Z,4.07
2018-08-16T16:28:00.178Z,4.13
2018-08-16T16:30:28.461Z,3.20
2018-08-16T16:32:57.331Z,4.00
2018-08-16T16:35:25.627Z,3.90
2018-08-16T16:37:53.859Z,4.47
2018-08-16T16:40:22.102Z,4.00
2018-08-16T16:42:50.378Z,4.03
2018-08-16T16:45:18.687Z,3.80
2018-08-16T16:47:46.982Z,4.73
2018-08-16T16:50:15.409Z,5.03
2018-08-16T16:52:43.653Z,4.17
2018-08-16T16:55:11.922Z,4.07
2018-08-16T16:57:40.243Z,3.83
2018-08-16T17:00:09.260Z,3.97
2018-08-16T17:02:37.551Z,4.03
2018-08-16T17:05:06.139Z,4.43
2018-08-16T17:07:34.635Z,5.17
2018-08-16T17:10:03.875Z,4.80
2018-08-16T17:12:32.489Z,4.63
2018-08-16T17:15:01.142Z,4.57
2018-08-16T17:17:29.936Z,4.27
2018-08-16T17:19:58.655Z,5.10
2018-08-16T17:22:27.463Z,4.87
2018-08-16T17:24:56.425Z,5.13
2018-08-16T17:27:25.086Z,5.23
2018-08-16T17:29:54.100Z,4.70
2018-08-16T17:32:22.532Z,5.30
2018-08-16T17:34:51.090Z,4.80
2018-08-16T17:37:19.885Z,5.57
2018-08-16T17:39:48.381Z,5.20
2018-08-16T17:42:17.275Z,4.53
2018-08-16T17:44:45.572Z,4.87
2018-08-16T17:47:14.268Z,4.87
2018-08-16T17:49:42.516Z,5.00
2018-08-16T17:52:10.869Z,4.90
2018-08-16T17:54:38.956Z,4.73
2018-08-16T17:57:07.306Z,5.10
2018-08-16T17:59:35.556Z,5.37
2018-08-16T18:02:03.887Z,4.63
2018-08-16T18:04:32.149Z,5.20
2018-08-16T18:07:00.401Z,5.03
2018-08-16T18:09:28.634Z,5.00
2018-08-16T18:11:56.887Z,5.17
2018-08-16T18:14:25.395Z,5.37
2018-08-16T18:16:53.717Z,6.37
2018-08-16T18:19:22.005Z,5.53
2018-08-16T18:21:50.207Z,13.70
2018-08-16T18:24:18.461Z,5.93
2018-08-16T18:26:46.924Z,5.53
2018-08-16T18:29:15.174Z,5.43
2018-08-16T18:31:43.414Z,5.33
2018-08-16T18:34:11.691Z,5.43
2018-08-16T18:36:39.985Z,5.90
2018-08-16T18:39:09.117Z,4.47
2018-08-16T18:41:37.813Z,4.87
2018-08-16T18:44:06.090Z,5.30
2018-08-16T18:46:34.424Z,4.93
2018-08-16T18:49:02.615Z,5.60
2018-08-16T18:51:30.878Z,5.30
2018-08-16T18:53:59.089Z,5.20
2018-08-16T18:56:27.366Z,4.73
2018-08-16T18:58:55.643Z,4.73
2018-08-16T19:01:23.944Z,4.80
2018-08-16T19:03:52.187Z,4.87
2018-08-16T19:06:20.414Z,5.60
2018-08-16T19:08:48.734Z,4.83
2018-08-16T19:11:17.022Z,5.50
2018-08-16T19:13:45.304Z,5.20
2018-08-16T19:16:13.657Z,4.73
2018-08-16T19:18:41.924Z,4.70
2018-08-16T19:21:10.186Z,5.33
2018-08-16T19:23:38.394Z,5.60
2018-08-16T19:26:06.696Z,5.17
2018-08-16T19:28:34.971Z,5.43
2018-08-16T19:31:03.266Z,5.07
2018-08-16T19:33:31.989Z,4.93
2018-08-16T19:36:00.352Z,5.00
2018-08-16T19:38:28.633Z,5.23
2018-08-16T19:40:56.924Z,5.30
2018-08-16T19:43:25.200Z,5.13
2018-08-16T19:45:53.542Z,5.03
2018-08-16T19:48:21.820Z,4.73
2018-08-16T19:50:50.024Z,5.30
2018-08-16T19:53:18.213Z,5.57
2018-08-16T19:55:46.684Z,6.00
2018-08-16T19:58:15.143Z,5.53
2018-08-16T20:00:43.352Z,10.80
2018-08-16T20:03:11.675Z,10.30
2018-08-16T20:05:40.061Z,8.03
2018-08-16T20:08:08.307Z,10.70
2018-08-16T20:10:36.508Z,6.40
2018-08-16T20:13:05.205Z,5.67
2018-08-16T20:15:33.427Z,5.50
2018-08-16T20:18:01.884Z,5.97
2018-08-16T20:20:31.064Z,5.83
2018-08-16T20:22:59.266Z,7.53
2018-08-16T20:25:27.929Z,5.87
2018-08-16T20:27:56.253Z,6.37
2018-08-16T20:30:24.975Z,6.33
2018-08-16T20:32:53.230Z,5.77
2018-08-16T20:35:21.452Z,5.73
2018-08-16T20:37:49.794Z,5.50
2018-08-16T20:40:18.041Z,6.27
2018-08-16T20:42:46.294Z,6.50
2018-08-16T20:45:14.558Z,7.00
2018-08-16T20:47:43.061Z,6.03
2018-08-16T20:50:11.290Z,10.20
2018-08-16T20:52:40.435Z,5.87
2018-08-16T20:55:08.638Z,6.33
2018-08-16T20:57:37.010Z,6.53
2018-08-16T21:00:06.192Z,6.10
2018-08-16T21:02:34.442Z,5.57
2018-08-16T21:05:02.654Z,7.40
2018-08-16T21:07:30.915Z,10.07
2018-08-16T21:09:59.839Z,10.00
2018-08-16T21:12:28.039Z,6.50
2018-08-16T21:14:56.261Z,5.73
2018-08-16T21:17:24.442Z,6.67
2018-08-16T21:19:52.723Z,5.53
2018-08-16T21:22:20.967Z,5.43
2018-08-16T21:24:49.271Z,5.10
2018-08-16T21:27:17.504Z,7.67
2018-08-16T21:29:46.013Z,5.43
2018-08-16T21:32:17.229Z,5.67
2018-08-16T21:34:45.435Z,5.67
2018-08-16T21:37:13.680Z,6.17
2018-08-16T21:39:41.931Z,5.87
2018-08-16T21:42:10.150Z,9.97
2018-08-16T21:44:38.414Z,5.30
2018-08-16T21:47:06.612Z,10.00
2018-08-16T21:49:34.826Z,7.93
2018-08-16T21:52:03.054Z,5.97
2018-08-16T21:54:31.214Z,6.20
2018-08-16T21:56:59.410Z,5.50
2018-08-16T21:59:27.610Z,5.77
2018-08-16T22:01:55.975Z,7.47
2018-08-16T22:04:24.182Z,6.13
2018-08-16T22:07:04.275Z,5.90
2018-08-16T22:09:32.515Z,5.70
2018-08-16T22:12:00.714Z,6.03
2018-08-16T22:14:28.919Z,5.30
2018-08-16T22:16:57.109Z,5.30
2018-08-16T22:19:25.326Z,5.97
2018-08-16T22:21:53.546Z,5.93
2018-08-16T22:24:21.806Z,5.87
2018-08-16T22:26:50.261Z,9.47
2018-08-16T22:29:18.598Z,5.80
2018-08-16T22:31:46.812Z,6.20
2018-08-16T22:34:15.030Z,5.73
2018-08-16T22:36:43.287Z,6.57
2018-08-16T22:39:12.916Z,6.73
2018-08-16T22:41:41.133Z,6.03
2018-08-16T22:44:09.696Z,6.63
2018-08-16T22:46:38.042Z,7.37
2018-08-16T22:49:06.391Z,5.30
2018-08-16T22:51:34.681Z,6.27
2018-08-16T22:54:02.866Z,5.80
2018-08-16T22:56:31.112Z,5.97
2018-08-16T22:58:59.332Z,6.63
2018-08-16T23:01:27.550Z,6.33
2018-08-16T23:03:55.774Z,6.37
2018-08-16T23:06:24.009Z,6.10
2018-08-16T23:08:52.255Z,6.00
2018-08-16T23:11:20.494Z,5.77
2018-08-16T23:13:48.724Z,5.63
2018-08-16T23:16:16.942Z,6.27
2018-08-16T23:18:45.214Z,6.23
2018-08-16T23:21:13.418Z,6.37
2018-08-16T23:23:41.616Z,6.17
2018-08-16T23:26:09.881Z,5.97
2018-08-16T23:28:38.165Z,11.93
2018-08-16T23:31:06.421Z,10.93
2018-08-16T23:33:34.647Z,7.93
2018-08-16T23:36:02.884Z,15.73
2018-08-16T23:38:31.091Z,8.53
2018-08-16T23:40:59.370Z,11.20
2018-08-16T23:43:28.412Z,9.20
2018-08-16T23:45:56.633Z,21.20
2018-08-16T23:48:27.967Z,6.20
2018-08-16T23:50:56.166Z,7.10
2018-08-16T23:53:24.461Z,5.60
2018-08-16T23:55:52.882Z,6.07
2018-08-16T23:58:21.166Z,6.50
